sensor_id;sensor_type;location;lat;lon;timestamp;pressure;altitude;pressure_sealevel;temperature;humidity
84809;BME280;75044;53.126;18.008;2023-12-20T00:01:03;100293.85;;;7.11;82.39
84809;BME280;75044;53.126;18.008;2023-12-20T00:02:17;100293.13;;;7.12;82.32
84809;BME280;75044;53.126;18.008;2023-12-20T00:03:21;100287.88;;;7.12;82.42
84809;BME280;75044;53.126;18.008;2023-12-20T00:04:25;100288.36;;;7.13;82.44
84809;BME280;75044;53.126;18.008;2023-12-20T00:05:29;100291.33;;;7.13;82.35
84809;BME280;75044;53.126;18.008;2023-12-20T00:06:32;100292.71;;;7.13;82.20
84809;BME280;75044;53.126;18.008;2023-12-20T00:07:36;100297.61;;;7.12;82.14
84809;BME280;75044;53.126;18.008;2023-12-20T00:08:41;100293.77;;;7.12;82.32
84809;BME280;75044;53.126;18.008;2023-12-20T00:09:44;100295.27;;;7.13;82.49
84809;BME280;75044;53.126;18.008;2023-12-20T00:10:51;100292.11;;;7.15;82.48
84809;BME280;75044;53.126;18.008;2023-12-20T00:11:54;100293.64;;;7.15;82.40
84809;BME280;75044;53.126;18.008;2023-12-20T00:12:59;100293.11;;;7.15;82.10
84809;BME280;75044;53.126;18.008;2023-12-20T00:14:02;100294.13;;;7.15;82.42
84809;BME280;75044;53.126;18.008;2023-12-20T00:15:06;100294.50;;;7.15;82.43
84809;BME280;75044;53.126;18.008;2023-12-20T00:16:09;100293.48;;;7.15;82.23
84809;BME280;75044;53.126;18.008;2023-12-20T00:17:12;100292.33;;;7.14;82.11
84809;BME280;75044;53.126;18.008;2023-12-20T00:18:16;100292.23;;;7.12;82.34
84809;BME280;75044;53.126;18.008;2023-12-20T00:19:22;100292.40;;;7.12;82.40
84809;BME280;75044;53.126;18.008;2023-12-20T00:20:26;100292.89;;;7.13;82.69
84809;BME280;75044;53.126;18.008;2023-12-20T00:21:29;100293.22;;;7.13;82.60
84809;BME280;75044;53.126;18.008;2023-12-20T00:22:32;100294.54;;;7.14;82.57
84809;BME280;75044;53.126;18.008;2023-12-20T00:23:36;100291.92;;;7.15;82.47
84809;BME280;75044;53.126;18.008;2023-12-20T00:24:39;100290.20;;;7.14;82.38
84809;BME280;75044;53.126;18.008;2023-12-20T00:25:42;100289.65;;;7.15;82.39
84809;BME280;75044;53.126;18.008;2023-12-20T00:26:45;100288.79;;;7.15;82.24
84809;BME280;75044;53.126;18.008;2023-12-20T00:27:51;100285.66;;;7.15;82.51
84809;BME280;75044;53.126;18.008;2023-12-20T00:28:54;100287.73;;;7.16;82.48
84809;BME280;75044;53.126;18.008;2023-12-20T00:29:57;100286.94;;;7.14;82.13
84809;BME280;75044;53.126;18.008;2023-12-20T00:31:01;100288.69;;;7.14;82.18
84809;BME280;75044;53.126;18.008;2023-12-20T00:32:05;100285.34;;;7.11;82.13
84809;BME280;75044;53.126;18.008;2023-12-20T00:33:08;100281.92;;;7.10;82.39
84809;BME280;75044;53.126;18.008;2023-12-20T00:34:13;100275.17;;;7.10;82.11
84809;BME280;75044;53.126;18.008;2023-12-20T00:35:17;100275.05;;;7.08;82.16
84809;BME280;75044;53.126;18.008;2023-12-20T00:36:20;100276.98;;;7.08;82.27
84809;BME280;75044;53.126;18.008;2023-12-20T00:37:23;100275.41;;;7.08;82.47
84809;BME280;75044;53.126;18.008;2023-12-20T00:38:27;100275.01;;;7.10;82.32
84809;BME280;75044;53.126;18.008;2023-12-20T00:39:31;100273.56;;;7.10;82.42
84809;BME280;75044;53.126;18.008;2023-12-20T00:40:34;100270.41;;;7.11;82.56
84809;BME280;75044;53.126;18.008;2023-12-20T00:41:38;100271.64;;;7.11;82.60
84809;BME280;75044;53.126;18.008;2023-12-20T00:42:41;100272.33;;;7.11;82.47
84809;BME280;75044;53.126;18.008;2023-12-20T00:43:44;100272.31;;;7.11;82.40
84809;BME280;75044;53.126;18.008;2023-12-20T00:44:48;100272.60;;;7.13;82.44
84809;BME280;75044;53.126;18.008;2023-12-20T00:45:51;100273.54;;;7.14;82.34
84809;BME280;75044;53.126;18.008;2023-12-20T00:46:55;100281.66;;;7.15;82.48
84809;BME280;75044;53.126;18.008;2023-12-20T00:47:58;100278.90;;;7.15;82.05
84809;BME280;75044;53.126;18.008;2023-12-20T00:49:02;100282.20;;;7.14;82.13
84809;BME280;75044;53.126;18.008;2023-12-20T00:50:06;100279.42;;;7.15;82.35
84809;BME280;75044;53.126;18.008;2023-12-20T00:51:11;100282.02;;;7.15;82.48
84809;BME280;75044;53.126;18.008;2023-12-20T00:52:14;100279.42;;;7.15;82.30
84809;BME280;75044;53.126;18.008;2023-12-20T00:53:19;100275.27;;;7.14;82.12
84809;BME280;75044;53.126;18.008;2023-12-20T00:54:22;100271.64;;;7.14;82.25
84809;BME280;75044;53.126;18.008;2023-12-20T00:55:26;100268.52;;;7.14;82.35
84809;BME280;75044;53.126;18.008;2023-12-20T00:56:29;100271.89;;;7.16;82.47
84809;BME280;75044;53.126;18.008;2023-12-20T00:57:32;100267.21;;;7.16;82.18
84809;BME280;75044;53.126;18.008;2023-12-20T00:58:35;100268.70;;;7.14;82.09
84809;BME280;75044;53.126;18.008;2023-12-20T00:59:39;100273.23;;;7.14;82.30
84809;BME280;75044;53.126;18.008;2023-12-20T01:00:42;100271.63;;;7.14;82.36
84809;BME280;75044;53.126;18.008;2023-12-20T01:01:48;100272.71;;;7.13;82.21
84809;BME280;75044;53.126;18.008;2023-12-20T01:02:53;100271.37;;;7.12;82.45
84809;BME280;75044;53.126;18.008;2023-12-20T01:03:57;100269.73;;;7.14;82.42
84809;BME280;75044;53.126;18.008;2023-12-20T01:05:00;100268.04;;;7.13;82.27
84809;BME280;75044;53.126;18.008;2023-12-20T01:06:04;100264.67;;;7.14;82.49
84809;BME280;75044;53.126;18.008;2023-12-20T01:07:07;100262.86;;;7.16;82.32
84809;BME280;75044;53.126;18.008;2023-12-20T01:08:11;100262.33;;;7.16;82.27
84809;BME280;75044;53.126;18.008;2023-12-20T01:09:14;100263.72;;;7.16;82.44
84809;BME280;75044;53.126;18.008;2023-12-20T01:10:20;100261.39;;;7.15;82.26
84809;BME280;75044;53.126;18.008;2023-12-20T01:11:25;100259.71;;;7.13;82.26
84809;BME280;75044;53.126;18.008;2023-12-20T01:12:28;100261.10;;;7.13;82.43
84809;BME280;75044;53.126;18.008;2023-12-20T01:13:31;100258.36;;;7.12;82.51
84809;BME280;75044;53.126;18.008;2023-12-20T01:14:34;100255.63;;;7.11;82.35
84809;BME280;75044;53.126;18.008;2023-12-20T01:15:37;100255.49;;;7.11;82.17
84809;BME280;75044;53.126;18.008;2023-12-20T01:16:41;100255.31;;;7.11;82.34
84809;BME280;75044;53.126;18.008;2023-12-20T01:17:44;100254.10;;;7.11;82.38
84809;BME280;75044;53.126;18.008;2023-12-20T01:18:47;100256.33;;;7.11;82.52
84809;BME280;75044;53.126;18.008;2023-12-20T01:19:51;100252.73;;;7.10;82.47
84809;BME280;75044;53.126;18.008;2023-12-20T01:20:54;100252.05;;;7.10;82.49
84809;BME280;75044;53.126;18.008;2023-12-20T01:21:57;100249.82;;;7.09;82.44
84809;BME280;75044;53.126;18.008;2023-12-20T01:23:00;100249.15;;;7.09;82.67
84809;BME280;75044;53.126;18.008;2023-12-20T01:24:03;100247.25;;;7.09;82.66
84809;BME280;75044;53.126;18.008;2023-12-20T01:25:07;100244.36;;;7.08;82.58
84809;BME280;75044;53.126;18.008;2023-12-20T01:26:10;100248.19;;;7.07;82.67
84809;BME280;75044;53.126;18.008;2023-12-20T01:27:14;100245.09;;;7.07;82.52
84809;BME280;75044;53.126;18.008;2023-12-20T01:28:18;100246.65;;;7.07;82.40
84809;BME280;75044;53.126;18.008;2023-12-20T01:29:21;100245.27;;;7.07;82.61
84809;BME280;75044;53.126;18.008;2023-12-20T01:30:25;100246.27;;;7.08;82.59
84809;BME280;75044;53.126;18.008;2023-12-20T01:31:28;100240.69;;;7.08;82.73
84809;BME280;75044;53.126;18.008;2023-12-20T01:32:31;100242.56;;;7.09;82.59
84809;BME280;75044;53.126;18.008;2023-12-20T01:33:35;100242.72;;;7.09;82.49
84809;BME280;75044;53.126;18.008;2023-12-20T01:34:38;100240.29;;;7.09;82.76
84809;BME280;75044;53.126;18.008;2023-12-20T01:35:41;100237.08;;;7.07;82.70
84809;BME280;75044;53.126;18.008;2023-12-20T01:36:44;100236.69;;;7.08;82.59
84809;BME280;75044;53.126;18.008;2023-12-20T01:37:48;100237.93;;;7.07;82.39
84809;BME280;75044;53.126;18.008;2023-12-20T01:38:51;100236.91;;;7.08;82.41
84809;BME280;75044;53.126;18.008;2023-12-20T01:39:55;100233.52;;;7.09;82.72
84809;BME280;75044;53.126;18.008;2023-12-20T01:40:58;100229.61;;;7.11;82.72
84809;BME280;75044;53.126;18.008;2023-12-20T01:42:01;100229.49;;;7.13;82.67
84809;BME280;75044;53.126;18.008;2023-12-20T01:43:08;100230.77;;;7.12;82.63
84809;BME280;75044;53.126;18.008;2023-12-20T01:44:11;100222.61;;;7.12;82.62
84809;BME280;75044;53.126;18.008;2023-12-20T01:45:15;100224.02;;;7.11;82.37
84809;BME280;75044;53.126;18.008;2023-12-20T01:46:19;100225.27;;;7.11;82.43
84809;BME280;75044;53.126;18.008;2023-12-20T01:47:23;100221.98;;;7.10;82.72
84809;BME280;75044;53.126;18.008;2023-12-20T01:48:28;100222.96;;;7.12;82.72
84809;BME280;75044;53.126;18.008;2023-12-20T01:49:31;100226.10;;;7.12;82.69
84809;BME280;75044;53.126;18.008;2023-12-20T01:50:36;100223.99;;;7.12;82.61
84809;BME280;75044;53.126;18.008;2023-12-20T01:51:40;100225.64;;;7.14;82.73
84809;BME280;75044;53.126;18.008;2023-12-20T01:52:44;100226.12;;;7.14;82.46
84809;BME280;75044;53.126;18.008;2023-12-20T01:53:48;100225.34;;;7.16;82.58
84809;BME280;75044;53.126;18.008;2023-12-20T01:54:53;100223.57;;;7.17;82.36
84809;BME280;75044;53.126;18.008;2023-12-20T01:55:58;100223.06;;;7.17;82.52
84809;BME280;75044;53.126;18.008;2023-12-20T01:57:02;100220.23;;;7.17;82.62
84809;BME280;75044;53.126;18.008;2023-12-20T01:58:10;100216.73;;;7.18;82.49
84809;BME280;75044;53.126;18.008;2023-12-20T01:59:15;100215.69;;;7.18;82.52
84809;BME280;75044;53.126;18.008;2023-12-20T02:00:19;100214.11;;;7.18;82.46
84809;BME280;75044;53.126;18.008;2023-12-20T02:01:26;100211.73;;;7.17;82.39
84809;BME280;75044;53.126;18.008;2023-12-20T02:02:31;100214.92;;;7.16;82.36
84809;BME280;75044;53.126;18.008;2023-12-20T02:03:35;100218.25;;;7.16;82.44
84809;BME280;75044;53.126;18.008;2023-12-20T02:04:40;100218.58;;;7.16;82.57
84809;BME280;75044;53.126;18.008;2023-12-20T02:05:44;100221.83;;;7.17;82.38
84809;BME280;75044;53.126;18.008;2023-12-20T02:06:48;100223.29;;;7.19;82.25
84809;BME280;75044;53.126;18.008;2023-12-20T02:07:55;100223.40;;;7.20;82.31
84809;BME280;75044;53.126;18.008;2023-12-20T02:08:58;100221.27;;;7.21;82.40
84809;BME280;75044;53.126;18.008;2023-12-20T02:10:02;100220.55;;;7.21;82.47
84809;BME280;75044;53.126;18.008;2023-12-20T02:11:08;100221.70;;;7.22;82.47
84809;BME280;75044;53.126;18.008;2023-12-20T02:12:11;100221.15;;;7.23;82.49
84809;BME280;75044;53.126;18.008;2023-12-20T02:13:14;100222.33;;;7.24;82.39
84809;BME280;75044;53.126;18.008;2023-12-20T02:14:18;100221.80;;;7.24;82.26
84809;BME280;75044;53.126;18.008;2023-12-20T02:15:21;100221.95;;;7.25;82.18
84809;BME280;75044;53.126;18.008;2023-12-20T02:16:25;100217.72;;;7.26;82.20
84809;BME280;75044;53.126;18.008;2023-12-20T02:17:29;100219.48;;;7.28;82.35
84809;BME280;75044;53.126;18.008;2023-12-20T02:18:33;100212.79;;;7.30;82.37
84809;BME280;75044;53.126;18.008;2023-12-20T02:19:37;100211.70;;;7.31;82.27
84809;BME280;75044;53.126;18.008;2023-12-20T02:20:41;100213.55;;;7.32;82.28
84809;BME280;75044;53.126;18.008;2023-12-20T02:21:44;100210.95;;;7.33;82.41
84809;BME280;75044;53.126;18.008;2023-12-20T02:22:48;100210.14;;;7.31;82.19
84809;BME280;75044;53.126;18.008;2023-12-20T02:23:51;100207.91;;;7.31;82.08
84809;BME280;75044;53.126;18.008;2023-12-20T02:24:55;100201.61;;;7.28;82.17
84809;BME280;75044;53.126;18.008;2023-12-20T02:25:58;100204.41;;;7.28;82.19
84809;BME280;75044;53.126;18.008;2023-12-20T02:27:02;100208.11;;;7.30;82.37
84809;BME280;75044;53.126;18.008;2023-12-20T02:28:06;100205.48;;;7.31;81.95
84809;BME280;75044;53.126;18.008;2023-12-20T02:29:09;100209.80;;;7.31;82.29
84809;BME280;75044;53.126;18.008;2023-12-20T02:30:13;100203.55;;;7.31;82.29
84809;BME280;75044;53.126;18.008;2023-12-20T02:31:16;100203.23;;;7.31;82.16
84809;BME280;75044;53.126;18.008;2023-12-20T02:32:20;100203.23;;;7.31;82.40
84809;BME280;75044;53.126;18.008;2023-12-20T02:33:24;100203.08;;;7.30;82.18
84809;BME280;75044;53.126;18.008;2023-12-20T02:34:27;100203.80;;;7.29;82.19
84809;BME280;75044;53.126;18.008;2023-12-20T02:35:30;100202.27;;;7.29;82.27
84809;BME280;75044;53.126;18.008;2023-12-20T02:36:33;100205.74;;;7.29;82.36
84809;BME280;75044;53.126;18.008;2023-12-20T02:37:37;100199.95;;;7.27;82.29
84809;BME280;75044;53.126;18.008;2023-12-20T02:38:40;100195.86;;;7.25;82.41
84809;BME280;75044;53.126;18.008;2023-12-20T02:39:43;100193.13;;;7.25;82.53
84809;BME280;75044;53.126;18.008;2023-12-20T02:40:46;100195.95;;;7.24;82.57
84809;BME280;75044;53.126;18.008;2023-12-20T02:41:49;100195.72;;;7.22;82.51
84809;BME280;75044;53.126;18.008;2023-12-20T02:42:53;100194.34;;;7.21;82.51
84809;BME280;75044;53.126;18.008;2023-12-20T02:43:56;100197.37;;;7.20;82.43
84809;BME280;75044;53.126;18.008;2023-12-20T02:44:59;100195.46;;;7.20;82.49
84809;BME280;75044;53.126;18.008;2023-12-20T02:46:03;100198.74;;;7.20;82.52
84809;BME280;75044;53.126;18.008;2023-12-20T02:47:06;100193.31;;;7.21;82.61
84809;BME280;75044;53.126;18.008;2023-12-20T02:48:09;100192.24;;;7.22;82.69
84809;BME280;75044;53.126;18.008;2023-12-20T02:49:12;100190.69;;;7.21;82.44
84809;BME280;75044;53.126;18.008;2023-12-20T02:50:16;100190.17;;;7.21;82.43
84809;BME280;75044;53.126;18.008;2023-12-20T02:51:19;100189.84;;;7.21;82.49
84809;BME280;75044;53.126;18.008;2023-12-20T02:52:23;100191.73;;;7.21;82.67
84809;BME280;75044;53.126;18.008;2023-12-20T02:53:27;100192.42;;;7.21;82.47
84809;BME280;75044;53.126;18.008;2023-12-20T02:54:30;100192.37;;;7.22;82.54
84809;BME280;75044;53.126;18.008;2023-12-20T02:55:34;100193.38;;;7.23;82.54
84809;BME280;75044;53.126;18.008;2023-12-20T02:56:37;100194.95;;;7.23;82.49
84809;BME280;75044;53.126;18.008;2023-12-20T02:57:40;100198.30;;;7.22;82.29
84809;BME280;75044;53.126;18.008;2023-12-20T02:58:44;100199.65;;;7.20;82.46
84809;BME280;75044;53.126;18.008;2023-12-20T02:59:48;100194.55;;;7.18;82.52
84809;BME280;75044;53.126;18.008;2023-12-20T03:00:52;100195.34;;;7.15;82.42
84809;BME280;75044;53.126;18.008;2023-12-20T03:01:55;100194.87;;;7.14;82.44
84809;BME280;75044;53.126;18.008;2023-12-20T03:02:58;100190.59;;;7.13;82.60
84809;BME280;75044;53.126;18.008;2023-12-20T03:04:03;100195.03;;;7.11;82.46
84809;BME280;75044;53.126;18.008;2023-12-20T03:05:06;100193.99;;;7.12;82.24
84809;BME280;75044;53.126;18.008;2023-12-20T03:06:09;100186.52;;;7.11;82.49
84809;BME280;75044;53.126;18.008;2023-12-20T03:07:12;100191.04;;;7.11;82.49
84809;BME280;75044;53.126;18.008;2023-12-20T03:08:16;100186.32;;;7.12;82.69
84809;BME280;75044;53.126;18.008;2023-12-20T03:09:19;100188.30;;;7.11;82.41
84809;BME280;75044;53.126;18.008;2023-12-20T03:10:22;100187.06;;;7.11;82.56
84809;BME280;75044;53.126;18.008;2023-12-20T03:11:27;100182.46;;;7.12;82.55
84809;BME280;75044;53.126;18.008;2023-12-20T03:12:31;100186.55;;;7.14;82.39
84809;BME280;75044;53.126;18.008;2023-12-20T03:13:34;100183.23;;;7.14;82.50
84809;BME280;75044;53.126;18.008;2023-12-20T03:14:37;100184.91;;;7.16;82.31
84809;BME280;75044;53.126;18.008;2023-12-20T03:15:40;100182.86;;;7.15;82.21
84809;BME280;75044;53.126;18.008;2023-12-20T03:16:49;100182.67;;;7.15;82.23
84809;BME280;75044;53.126;18.008;2023-12-20T03:17:52;100183.39;;;7.15;82.21
84809;BME280;75044;53.126;18.008;2023-12-20T03:18:55;100184.79;;;7.15;82.26
84809;BME280;75044;53.126;18.008;2023-12-20T03:19:58;100184.77;;;7.15;82.31
84809;BME280;75044;53.126;18.008;2023-12-20T03:21:03;100186.15;;;7.16;82.36
84809;BME280;75044;53.126;18.008;2023-12-20T03:22:07;100186.05;;;7.17;82.57
84809;BME280;75044;53.126;18.008;2023-12-20T03:23:10;100184.23;;;7.18;82.35
84809;BME280;75044;53.126;18.008;2023-12-20T03:24:13;100186.42;;;7.20;82.33
84809;BME280;75044;53.126;18.008;2023-12-20T03:25:17;100184.30;;;7.20;82.11
84809;BME280;75044;53.126;18.008;2023-12-20T03:26:20;100185.34;;;7.20;82.12
84809;BME280;75044;53.126;18.008;2023-12-20T03:27:25;100187.22;;;7.21;82.25
84809;BME280;75044;53.126;18.008;2023-12-20T03:28:29;100189.14;;;7.21;82.09
84809;BME280;75044;53.126;18.008;2023-12-20T03:29:33;100187.55;;;7.21;82.26
84809;BME280;75044;53.126;18.008;2023-12-20T03:30:36;100186.63;;;7.23;82.26
84809;BME280;75044;53.126;18.008;2023-12-20T03:31:40;100187.52;;;7.22;82.27
84809;BME280;75044;53.126;18.008;2023-12-20T03:32:43;100184.37;;;7.23;82.04
84809;BME280;75044;53.126;18.008;2023-12-20T03:33:46;100185.91;;;7.23;82.05
84809;BME280;75044;53.126;18.008;2023-12-20T03:34:50;100187.13;;;7.23;82.05
84809;BME280;75044;53.126;18.008;2023-12-20T03:35:53;100184.02;;;7.22;82.12
84809;BME280;75044;53.126;18.008;2023-12-20T03:36:56;100185.58;;;7.23;82.31
84809;BME280;75044;53.126;18.008;2023-12-20T03:38:00;100180.36;;;7.23;82.05
84809;BME280;75044;53.126;18.008;2023-12-20T03:39:03;100183.87;;;7.22;82.17
84809;BME280;75044;53.126;18.008;2023-12-20T03:40:07;100180.56;;;7.22;82.08
84809;BME280;75044;53.126;18.008;2023-12-20T03:41:10;100181.59;;;7.23;81.95
84809;BME280;75044;53.126;18.008;2023-12-20T03:42:16;100175.41;;;7.21;82.17
84809;BME280;75044;53.126;18.008;2023-12-20T03:43:21;100184.45;;;7.21;81.95
84809;BME280;75044;53.126;18.008;2023-12-20T03:44:25;100182.05;;;7.20;81.91
84809;BME280;75044;53.126;18.008;2023-12-20T03:45:28;100182.53;;;7.18;81.93
84809;BME280;75044;53.126;18.008;2023-12-20T03:46:32;100184.13;;;7.17;81.96
84809;BME280;75044;53.126;18.008;2023-12-20T03:47:35;100184.14;;;7.17;82.17
84809;BME280;75044;53.126;18.008;2023-12-20T03:48:38;100186.23;;;7.17;82.19
84809;BME280;75044;53.126;18.008;2023-12-20T03:49:41;100182.91;;;7.17;82.27
84809;BME280;75044;53.126;18.008;2023-12-20T03:50:45;100183.80;;;7.17;82.10
84809;BME280;75044;53.126;18.008;2023-12-20T03:51:48;100181.72;;;7.17;82.04
84809;BME280;75044;53.126;18.008;2023-12-20T03:52:54;100181.70;;;7.17;82.27
84809;BME280;75044;53.126;18.008;2023-12-20T03:53:57;100182.20;;;7.18;82.34
84809;BME280;75044;53.126;18.008;2023-12-20T03:55:01;100180.92;;;7.18;82.40
84809;BME280;75044;53.126;18.008;2023-12-20T03:56:04;100182.10;;;7.20;82.23
84809;BME280;75044;53.126;18.008;2023-12-20T03:57:08;100183.88;;;7.19;82.16
84809;BME280;75044;53.126;18.008;2023-12-20T03:58:11;100181.08;;;7.19;82.30
84809;BME280;75044;53.126;18.008;2023-12-20T03:59:14;100183.80;;;7.20;82.32
84809;BME280;75044;53.126;18.008;2023-12-20T04:00:18;100182.31;;;7.19;82.35
84809;BME280;75044;53.126;18.008;2023-12-20T04:01:21;100181.94;;;7.19;82.13
84809;BME280;75044;53.126;18.008;2023-12-20T04:02:25;100181.16;;;7.21;82.25
84809;BME280;75044;53.126;18.008;2023-12-20T04:03:28;100178.27;;;7.20;82.05
84809;BME280;75044;53.126;18.008;2023-12-20T04:04:31;100180.23;;;7.19;81.91
84809;BME280;75044;53.126;18.008;2023-12-20T04:05:36;100180.14;;;7.17;82.03
84809;BME280;75044;53.126;18.008;2023-12-20T04:06:39;100179.16;;;7.16;81.99
84809;BME280;75044;53.126;18.008;2023-12-20T04:07:43;100180.97;;;7.15;82.13
84809;BME280;75044;53.126;18.008;2023-12-20T04:08:46;100181.81;;;7.15;82.35
84809;BME280;75044;53.126;18.008;2023-12-20T04:09:50;100180.95;;;7.15;82.25
84809;BME280;75044;53.126;18.008;2023-12-20T04:10:54;100180.59;;;7.15;81.94
84809;BME280;75044;53.126;18.008;2023-12-20T04:11:57;100182.02;;;7.15;82.02
84809;BME280;75044;53.126;18.008;2023-12-20T04:13:00;100180.77;;;7.15;81.90
84809;BME280;75044;53.126;18.008;2023-12-20T04:14:03;100181.15;;;7.14;82.16
84809;BME280;75044;53.126;18.008;2023-12-20T04:15:10;100180.80;;;7.15;82.03
84809;BME280;75044;53.126;18.008;2023-12-20T04:16:15;100182.52;;;7.15;82.19
84809;BME280;75044;53.126;18.008;2023-12-20T04:17:20;100180.91;;;7.16;82.26
84809;BME280;75044;53.126;18.008;2023-12-20T04:18:25;100180.30;;;7.18;81.91
84809;BME280;75044;53.126;18.008;2023-12-20T04:19:29;100180.48;;;7.17;81.82
84809;BME280;75044;53.126;18.008;2023-12-20T04:20:32;100176.49;;;7.17;81.94
84809;BME280;75044;53.126;18.008;2023-12-20T04:21:35;100179.86;;;7.16;81.75
84809;BME280;75044;53.126;18.008;2023-12-20T04:22:38;100177.79;;;7.16;81.94
84809;BME280;75044;53.126;18.008;2023-12-20T04:23:42;100178.96;;;7.16;81.92
84809;BME280;75044;53.126;18.008;2023-12-20T04:24:45;100177.93;;;7.16;81.71
84809;BME280;75044;53.126;18.008;2023-12-20T04:25:48;100179.80;;;7.17;81.68
84809;BME280;75044;53.126;18.008;2023-12-20T04:26:52;100177.84;;;7.18;81.59
84809;BME280;75044;53.126;18.008;2023-12-20T04:27:55;100175.92;;;7.18;81.65
84809;BME280;75044;53.126;18.008;2023-12-20T04:28:59;100175.27;;;7.18;81.63
84809;BME280;75044;53.126;18.008;2023-12-20T04:30:02;100179.63;;;7.17;81.59
84809;BME280;75044;53.126;18.008;2023-12-20T04:31:05;100174.84;;;7.16;81.58
84809;BME280;75044;53.126;18.008;2023-12-20T04:32:09;100174.90;;;7.14;81.65
84809;BME280;75044;53.126;18.008;2023-12-20T04:33:12;100173.66;;;7.15;81.62
84809;BME280;75044;53.126;18.008;2023-12-20T04:34:16;100174.62;;;7.16;81.78
84809;BME280;75044;53.126;18.008;2023-12-20T04:35:19;100170.94;;;7.17;81.72
84809;BME280;75044;53.126;18.008;2023-12-20T04:36:23;100173.56;;;7.17;81.42
84809;BME280;75044;53.126;18.008;2023-12-20T04:37:28;100173.21;;;7.17;81.61
84809;BME280;75044;53.126;18.008;2023-12-20T04:38:31;100175.10;;;7.17;81.41
84809;BME280;75044;53.126;18.008;2023-12-20T04:39:35;100177.23;;;7.16;81.58
84809;BME280;75044;53.126;18.008;2023-12-20T04:40:40;100179.52;;;7.16;81.32
84809;BME280;75044;53.126;18.008;2023-12-20T04:41:44;100182.86;;;7.15;81.38
84809;BME280;75044;53.126;18.008;2023-12-20T04:42:47;100184.08;;;7.15;81.39
84809;BME280;75044;53.126;18.008;2023-12-20T04:43:50;100184.48;;;7.14;81.60
84809;BME280;75044;53.126;18.008;2023-12-20T04:44:54;100180.45;;;7.15;81.71
84809;BME280;75044;53.126;18.008;2023-12-20T04:45:58;100183.41;;;7.15;81.27
84809;BME280;75044;53.126;18.008;2023-12-20T04:47:01;100181.02;;;7.14;81.47
84809;BME280;75044;53.126;18.008;2023-12-20T04:48:04;100178.73;;;7.14;81.39
84809;BME280;75044;53.126;18.008;2023-12-20T04:49:08;100182.32;;;7.12;81.04
84809;BME280;75044;53.126;18.008;2023-12-20T04:50:11;100183.33;;;7.10;81.15
84809;BME280;75044;53.126;18.008;2023-12-20T04:51:16;100186.42;;;7.10;81.28
84809;BME280;75044;53.126;18.008;2023-12-20T04:52:19;100185.51;;;7.11;81.24
84809;BME280;75044;53.126;18.008;2023-12-20T04:53:23;100186.02;;;7.11;81.19
84809;BME280;75044;53.126;18.008;2023-12-20T04:54:26;100188.93;;;7.12;81.10
84809;BME280;75044;53.126;18.008;2023-12-20T04:55:30;100189.74;;;7.10;81.32
84809;BME280;75044;53.126;18.008;2023-12-20T04:56:33;100189.41;;;7.09;81.35
84809;BME280;75044;53.126;18.008;2023-12-20T04:57:36;100192.39;;;7.09;81.20
84809;BME280;75044;53.126;18.008;2023-12-20T04:58:40;100187.80;;;7.07;80.83
84809;BME280;75044;53.126;18.008;2023-12-20T04:59:43;100184.84;;;7.04;80.72
84809;BME280;75044;53.126;18.008;2023-12-20T05:00:46;100187.31;;;7.02;80.93
84809;BME280;75044;53.126;18.008;2023-12-20T05:01:49;100186.09;;;6.99;80.96
84809;BME280;75044;53.126;18.008;2023-12-20T05:02:53;100187.06;;;6.97;81.03
84809;BME280;75044;53.126;18.008;2023-12-20T05:03:57;100191.95;;;6.97;81.27
84809;BME280;75044;53.126;18.008;2023-12-20T05:05:00;100194.56;;;6.96;81.28
84809;BME280;75044;53.126;18.008;2023-12-20T05:06:04;100196.11;;;6.97;81.22
84809;BME280;75044;53.126;18.008;2023-12-20T05:07:07;100193.17;;;6.97;81.12
84809;BME280;75044;53.126;18.008;2023-12-20T05:08:10;100195.77;;;6.97;81.19
84809;BME280;75044;53.126;18.008;2023-12-20T05:09:17;100193.22;;;6.95;81.15
84809;BME280;75044;53.126;18.008;2023-12-20T05:10:20;100193.60;;;6.95;81.08
84809;BME280;75044;53.126;18.008;2023-12-20T05:11:24;100195.20;;;6.94;80.81
84809;BME280;75044;53.126;18.008;2023-12-20T05:12:27;100192.90;;;6.91;80.90
84809;BME280;75044;53.126;18.008;2023-12-20T05:13:31;100189.23;;;6.92;81.05
84809;BME280;75044;53.126;18.008;2023-12-20T05:14:34;100187.98;;;6.93;81.01
84809;BME280;75044;53.126;18.008;2023-12-20T05:15:37;100188.83;;;6.93;81.05
84809;BME280;75044;53.126;18.008;2023-12-20T05:16:40;100188.65;;;6.93;81.10
84809;BME280;75044;53.126;18.008;2023-12-20T05:17:43;100185.66;;;6.94;81.19
84809;BME280;75044;53.126;18.008;2023-12-20T05:18:48;100185.16;;;6.93;81.09
84809;BME280;75044;53.126;18.008;2023-12-20T05:19:53;100183.56;;;6.94;81.11
84809;BME280;75044;53.126;18.008;2023-12-20T05:20:57;100179.95;;;6.94;81.18
84809;BME280;75044;53.126;18.008;2023-12-20T05:22:01;100180.94;;;6.95;80.91
84809;BME280;75044;53.126;18.008;2023-12-20T05:23:06;100182.64;;;6.95;80.88
84809;BME280;75044;53.126;18.008;2023-12-20T05:24:10;100180.86;;;6.96;80.79
84809;BME280;75044;53.126;18.008;2023-12-20T05:25:13;100182.95;;;6.96;80.83
84809;BME280;75044;53.126;18.008;2023-12-20T05:26:17;100183.91;;;6.94;80.56
84809;BME280;75044;53.126;18.008;2023-12-20T05:27:20;100182.05;;;6.93;80.78
84809;BME280;75044;53.126;18.008;2023-12-20T05:28:24;100180.52;;;6.93;80.84
84809;BME280;75044;53.126;18.008;2023-12-20T05:29:27;100181.73;;;6.93;80.93
84809;BME280;75044;53.126;18.008;2023-12-20T05:30:31;100181.67;;;6.91;80.74
84809;BME280;75044;53.126;18.008;2023-12-20T05:31:34;100178.26;;;6.89;80.92
84809;BME280;75044;53.126;18.008;2023-12-20T05:32:37;100175.64;;;6.87;81.06
84809;BME280;75044;53.126;18.008;2023-12-20T05:33:40;100177.60;;;6.86;81.08